Brigitte Bardot — VKV7340 — position and weather

sailwx.info

Track history (hours):
 
Tides and Currents Weather Stations Pressure Air Temp Water Temp Dewpoint Dewpoint Depression Visibility Wind Speed Wind Dir Waves Ship Positions

Brigitte Bardot

Last reported at 2017-Jul-23 02:30 UTC. Time now 2017-Jul-27 16:52 UTC.
Position N 36°50' E 011°56'.

Length 35 m.

Type: Pleasure craft. MMSI: 503645100.

Date/timePositionNaut miles runAvg speedWind from/ knotsBaromVisibWave heightAir tempDewpointWater temp
2017-Jul-23 02:30N 36°50' E 011°56'0 0.0
2017-Jul-23 01:54N 36°50' E 011°56'0 0.0
2017-Jul-23 00:30N 36°50' E 011°56'0 0.0
2017-Jul-23 00:00N 36°50' E 011°56'0 0.0
2017-Jul-22 23:27N 36°50' E 011°56'0 0.0
2017-Jul-22 23:00N 36°50' E 011°56'0 0.0
2017-Jul-22 22:30N 36°50' E 011°56'0 0.0
2017-Jul-22 22:00N 36°50' E 011°56'0 0.0
2017-Jul-22 21:15N 36°50' E 011°56'0 0.1
2017-Jul-22 21:00N 36°50' E 011°56'0 0.0
2017-Jul-22 20:27N 36°50' E 011°56'0 0.0
2017-Jul-22 19:54N 36°50' E 011°56'0 0.0
2017-Jul-22 18:48N 36°50' E 011°56'0 0.0
2017-Jul-22 18:27N 36°50' E 011°56'0 0.0
2017-Jul-22 17:57N 36°50' E 011°56'0 0.0
2017-Jul-22 17:30N 36°50' E 011°56'0 0.0
2017-Jul-22 16:57N 36°50' E 011°56'0 0.0
2017-Jul-22 16:30N 36°50' E 011°56'2 0.1
2017-Jul-21 22:02N 36°50' E 011°59'0 0.0
2017-Jul-21 20:20N 36°50' E 011°59'0 0.0
2017-Jul-21 19:56N 36°50' E 011°59'0 0.0
2017-Jul-21 19:26N 36°50' E 011°59'0 0.0
2017-Jul-21 18:56N 36°50' E 011°59'0 0.0
2017-Jul-21 18:23N 36°50' E 011°59'0 0.0
2017-Jul-21 17:59N 36°50' E 011°59'0 0.0
2017-Jul-21 17:26N 36°50' E 011°59'0 0.1
2017-Jul-21 16:56N 36°50' E 011°59'5 1.7
2017-Jul-21 13:57N 36°46' E 012°04'32 7.7
2017-Jul-21 09:51N 36°36' E 011°26'1 0.1
2017-Jul-20 18:54N 36°35' E 011°26'0 0.3
2017-Jul-20 18:26N 36°35' E 011°27'0 0.4
2017-Jul-20 17:56N 36°35' E 011°27'  
Track history (hours):
 
Tides and Currents Weather Stations Pressure Air Temp Water Temp Dewpoint Dewpoint Depression Visibility Wind Speed Wind Dir Waves Ship Positions

Brigitte Bardot

Last reported at 2017-Jul-23 02:30 UTC. Time now 2017-Jul-27 16:52 UTC.
Position N 36°50' E 011°56'.

Length 35 m.

Type: Pleasure craft. MMSI: 503645100.

Date/timePositionNaut miles runAvg speedWind from/ knotsBaromVisibWave heightAir tempDewpointWater temp
2017-Jul-23 02:30N 36°50' E 011°56'0 0.0
2017-Jul-23 01:54N 36°50' E 011°56'0 0.0
2017-Jul-23 00:30N 36°50' E 011°56'0 0.0
2017-Jul-23 00:00N 36°50' E 011°56'0 0.0
2017-Jul-22 23:27N 36°50' E 011°56'0 0.0
2017-Jul-22 23:00N 36°50' E 011°56'0 0.0
2017-Jul-22 22:30N 36°50' E 011°56'0 0.0
2017-Jul-22 22:00N 36°50' E 011°56'0 0.0
2017-Jul-22 21:15N 36°50' E 011°56'0 0.1
2017-Jul-22 21:00N 36°50' E 011°56'0 0.0
2017-Jul-22 20:27N 36°50' E 011°56'0 0.0
2017-Jul-22 19:54N 36°50' E 011°56'0 0.0
2017-Jul-22 18:48N 36°50' E 011°56'0 0.0
2017-Jul-22 18:27N 36°50' E 011°56'0 0.0
2017-Jul-22 17:57N 36°50' E 011°56'0 0.0
2017-Jul-22 17:30N 36°50' E 011°56'0 0.0
2017-Jul-22 16:57N 36°50' E 011°56'0 0.0
2017-Jul-22 16:30N 36°50' E 011°56'2 0.1
2017-Jul-21 22:02N 36°50' E 011°59'0 0.0
2017-Jul-21 20:20N 36°50' E 011°59'0 0.0
2017-Jul-21 19:56N 36°50' E 011°59'0 0.0
2017-Jul-21 19:26N 36°50' E 011°59'0 0.0
2017-Jul-21 18:56N 36°50' E 011°59'0 0.0
2017-Jul-21 18:23N 36°50' E 011°59'0 0.0
2017-Jul-21 17:59N 36°50' E 011°59'0 0.0
2017-Jul-21 17:26N 36°50' E 011°59'0 0.1
2017-Jul-21 16:56N 36°50' E 011°59'5 1.7
2017-Jul-21 13:57N 36°46' E 012°04'32 7.7
2017-Jul-21 09:51N 36°36' E 011°26'1 0.1
2017-Jul-20 18:54N 36°35' E 011°26'0 0.3
2017-Jul-20 18:26N 36°35' E 011°27'0 0.4
2017-Jul-20 17:56N 36°35' E 011°27'  

Dump ship's entire track history